createdAt,value
2022-11-05T00:00:36.599Z,11.59
2022-11-05T00:03:22.080Z,11.36
2022-11-05T00:06:09.953Z,11.21
2022-11-05T00:08:55.721Z,11.39
2022-11-05T00:11:42.590Z,11.60
2022-11-05T00:14:28.207Z,11.15
2022-11-05T00:16:55.046Z,11.10
2022-11-05T00:19:21.832Z,11.04
2022-11-05T00:22:07.342Z,11.02
2022-11-05T00:24:53.067Z,10.95
2022-11-05T00:27:19.971Z,10.99
2022-11-05T00:29:46.742Z,11.10
2022-11-05T00:32:13.570Z,11.13
2022-11-05T00:34:40.447Z,11.22
2022-11-05T00:37:07.274Z,11.08
2022-11-05T00:39:34.169Z,11.10
2022-11-05T00:42:19.494Z,11.05
2022-11-05T00:45:01.504Z,11.08
2022-11-05T00:47:47.744Z,10.93
2022-11-05T00:50:14.661Z,11.00
2022-11-05T00:52:56.952Z,11.05
2022-11-05T00:55:35.296Z,11.01
2022-11-05T00:58:03.090Z,11.14
2022-11-05T01:00:31.696Z,11.07
2022-11-05T01:03:00.422Z,11.10
2022-11-05T01:05:29.007Z,11.13
2022-11-05T01:07:56.002Z,11.28
2022-11-05T01:10:23.176Z,11.39
2022-11-05T01:12:50.664Z,11.46
2022-11-05T01:15:18.464Z,11.57
2022-11-05T01:17:45.272Z,11.52
2022-11-05T01:20:12.775Z,11.28
2022-11-05T01:22:39.693Z,11.20
2022-11-05T01:25:07.591Z,11.06
2022-11-05T01:27:36.383Z,11.05
2022-11-05T01:30:05.451Z,11.04
2022-11-05T01:32:32.248Z,10.83
2022-11-05T01:34:59.185Z,10.79
2022-11-05T01:37:25.974Z,10.83
2022-11-05T01:39:52.735Z,10.69
2022-11-05T01:42:22.944Z,10.82
2022-11-05T01:44:57.156Z,11.02
2022-11-05T01:47:51.955Z,11.22
2022-11-05T01:50:36.983Z,11.27
2022-11-05T01:53:13.364Z,11.28
2022-11-05T01:55:46.231Z,11.31
2022-11-05T01:58:19.341Z,11.41
2022-11-05T02:00:46.209Z,11.43
2022-11-05T02:03:16.632Z,11.45
2022-11-05T02:05:44.423Z,11.35
2022-11-05T02:08:19.501Z,11.37
2022-11-05T02:10:46.555Z,11.38
2022-11-05T02:13:13.638Z,11.14
2022-11-05T02:15:51.060Z,11.04
2022-11-05T02:18:23.793Z,11.14
2022-11-05T02:21:03.899Z,11.23
2022-11-05T02:23:39.887Z,11.13
2022-11-05T02:26:27.434Z,11.17
2022-11-05T02:29:38.678Z,11.13
2022-11-05T02:32:13.944Z,11.23
2022-11-05T02:34:55.747Z,11.23
2022-11-05T02:37:58.732Z,11.21
2022-11-05T02:40:46.301Z,11.23
2022-11-05T02:44:01.682Z,11.25
2022-11-05T02:46:52.037Z,11.26
2022-11-05T02:49:31.381Z,11.19
2022-11-05T02:52:02.206Z,10.95
2022-11-05T02:54:48.296Z,10.69
2022-11-05T02:57:15.087Z,10.58
2022-11-05T02:59:41.932Z,10.55
2022-11-05T03:02:09.062Z,10.48
2022-11-05T03:04:36.014Z,10.44
2022-11-05T03:07:02.731Z,10.65
2022-11-05T03:10:03.029Z,10.57
2022-11-05T03:12:57.181Z,10.60
2022-11-05T03:16:02.627Z,10.74
2022-11-05T03:18:35.084Z,10.82
2022-11-05T03:21:30.468Z,10.78
2022-11-05T03:24:08.277Z,10.69
2022-11-05T03:27:07.364Z,10.61
2022-11-05T03:29:39.267Z,10.75
2022-11-05T03:32:09.493Z,10.81
2022-11-05T03:34:42.530Z,10.85
2022-11-05T03:37:10.895Z,10.80
2022-11-05T03:39:42.921Z,10.43
2022-11-05T03:42:12.846Z,10.65
2022-11-05T03:44:46.486Z,10.65
2022-11-05T03:47:22.237Z,10.85
2022-11-05T03:49:58.480Z,10.79
2022-11-05T03:52:29.642Z,10.66
2022-11-05T03:54:56.751Z,10.85
2022-11-05T03:57:31.496Z,10.78
2022-11-05T03:59:58.404Z,10.78
2022-11-05T04:02:26.973Z,10.71
2022-11-05T04:04:54.475Z,10.77
2022-11-05T04:07:39.814Z,10.73
2022-11-05T04:10:25.420Z,10.61
2022-11-05T04:13:11.161Z,10.15
2022-11-05T04:16:13.405Z,10.00
2022-11-05T04:18:40.859Z,9.69
2022-11-05T04:21:28.852Z,9.66
2022-11-05T04:24:10.912Z,9.75
2022-11-05T04:26:41.391Z,9.67
2022-11-05T04:29:26.900Z,9.72
2022-11-05T04:31:54.096Z,9.74
2022-11-05T04:34:22.302Z,9.48
2022-11-05T04:36:53.256Z,9.45
2022-11-05T04:39:21.623Z,9.57
2022-11-05T04:41:48.824Z,9.50
2022-11-05T04:44:17.107Z,9.60
2022-11-05T04:46:43.969Z,9.67
2022-11-05T04:49:10.797Z,9.53
2022-11-05T04:51:37.636Z,9.72
2022-11-05T04:54:04.579Z,9.75
2022-11-05T04:56:31.408Z,9.72
2022-11-05T04:58:58.216Z,9.72
2022-11-05T05:01:25.800Z,9.61
2022-11-05T05:03:54.200Z,9.78
2022-11-05T05:06:21.747Z,9.82
2022-11-05T05:08:50.099Z,9.86
2022-11-05T05:11:19.465Z,9.99
2022-11-05T05:13:46.945Z,9.95
2022-11-05T05:16:31.530Z,10.09
2022-11-05T05:18:58.348Z,9.77
2022-11-05T05:21:40.606Z,9.87
2022-11-05T05:24:18.813Z,9.73
2022-11-05T05:26:47.190Z,9.67
2022-11-05T05:29:14.851Z,9.77
2022-11-05T05:31:42.371Z,9.88
2022-11-05T05:34:12.948Z,9.86
2022-11-05T05:36:40.533Z,9.94
2022-11-05T05:39:08.775Z,9.78
2022-11-05T05:41:35.705Z,10.02
2022-11-05T05:44:04.458Z,10.10
2022-11-05T05:46:31.220Z,10.19
2022-11-05T05:48:58.233Z,10.25
2022-11-05T05:51:25.120Z,10.30
2022-11-05T05:53:53.821Z,10.40
2022-11-05T05:56:20.917Z,10.47
2022-11-05T05:58:47.975Z,10.61
2022-11-05T06:01:19.236Z,10.79
2022-11-05T06:03:47.600Z,10.88
2022-11-05T06:06:16.271Z,10.82
2022-11-05T06:08:43.236Z,10.87
2022-11-05T06:11:10.251Z,11.00
2022-11-05T06:13:37.865Z,11.17
2022-11-05T06:16:07.584Z,11.21
2022-11-05T06:18:35.691Z,11.24
2022-11-05T06:21:10.900Z,11.34
2022-11-05T06:23:39.429Z,11.59
2022-11-05T06:26:09.228Z,11.81
2022-11-05T06:28:36.503Z,12.37
2022-11-05T06:31:03.812Z,12.86
2022-11-05T06:33:30.980Z,13.05
2022-11-05T06:36:05.105Z,13.94
2022-11-05T06:38:34.077Z,14.18
2022-11-05T06:41:07.176Z,14.44
2022-11-05T06:43:37.243Z,14.77
2022-11-05T06:46:04.435Z,15.10
2022-11-05T06:48:31.255Z,15.32
2022-11-05T06:50:58.690Z,14.85
2022-11-05T06:53:25.508Z,14.97
2022-11-05T06:55:52.331Z,15.11
2022-11-05T06:58:19.238Z,15.21
2022-11-05T07:00:46.395Z,15.35
2022-11-05T07:03:14.499Z,15.54
2022-11-05T07:05:48.017Z,15.83
2022-11-05T07:08:15.135Z,16.00
2022-11-05T07:10:42.032Z,16.18
2022-11-05T07:13:09.341Z,15.86
2022-11-05T07:15:37.423Z,16.00
2022-11-05T07:18:07.327Z,16.27
2022-11-05T07:20:34.933Z,16.27
2022-11-05T07:23:04.154Z,16.37
2022-11-05T07:25:32.895Z,16.55
2022-11-05T07:28:00.110Z,16.65
2022-11-05T07:30:27.913Z,17.09
2022-11-05T07:32:55.247Z,17.13
2022-11-05T07:35:22.556Z,17.24
2022-11-05T07:37:51.504Z,17.07
2022-11-05T07:40:19.436Z,17.18
2022-11-05T07:42:48.542Z,17.10
2022-11-05T07:45:16.107Z,17.38
2022-11-05T07:47:51.452Z,17.36
2022-11-05T07:50:20.164Z,16.94
2022-11-05T07:52:48.255Z,17.05
2022-11-05T07:55:16.031Z,16.91
2022-11-05T07:57:51.039Z,17.38
2022-11-05T08:00:21.614Z,17.51
2022-11-05T08:03:13.200Z,17.15
2022-11-05T08:05:44.771Z,17.22
2022-11-05T08:08:17.707Z,17.13
2022-11-05T08:10:45.074Z,17.15
2022-11-05T08:13:13.365Z,17.53
2022-11-05T08:15:41.096Z,17.14
2022-11-05T08:18:18.260Z,17.13
2022-11-05T08:20:46.557Z,17.02
2022-11-05T08:23:14.518Z,17.13
2022-11-05T08:25:42.081Z,17.51
2022-11-05T08:28:12.233Z,17.81
2022-11-05T08:30:39.661Z,17.79
2022-11-05T08:33:13.201Z,17.72
2022-11-05T08:35:40.609Z,17.89
2022-11-05T08:38:10.267Z,18.45
2022-11-05T08:40:37.872Z,18.73
2022-11-05T08:43:06.840Z,18.75
2022-11-05T08:45:34.893Z,19.04
2022-11-05T08:48:03.024Z,19.38
2022-11-05T08:50:31.130Z,18.99
2022-11-05T08:52:57.977Z,18.36
2022-11-05T08:55:25.446Z,18.82
2022-11-05T08:57:56.703Z,18.85
2022-11-05T09:00:24.057Z,19.04
2022-11-05T09:02:50.976Z,18.90
2022-11-05T09:05:17.937Z,18.40
2022-11-05T09:07:46.642Z,19.08
2022-11-05T09:10:13.595Z,19.32
2022-11-05T09:12:40.375Z,19.25
2022-11-05T09:15:07.822Z,19.83
2022-11-05T09:17:34.728Z,19.62
2022-11-05T09:20:03.523Z,19.74
2022-11-05T09:22:30.983Z,19.52
2022-11-05T09:24:57.746Z,20.11
2022-11-05T09:27:24.560Z,20.47
2022-11-05T09:29:51.431Z,20.37
2022-11-05T09:32:19.382Z,20.76
2022-11-05T09:34:48.564Z,20.68
2022-11-05T09:37:15.645Z,20.78
2022-11-05T09:39:42.485Z,21.32
2022-11-05T09:42:13.522Z,20.98
2022-11-05T09:45:13.898Z,21.22
2022-11-05T09:47:44.564Z,20.83
2022-11-05T09:50:17.450Z,20.76
2022-11-05T09:52:44.989Z,20.55
2022-11-05T09:55:23.717Z,20.11
2022-11-05T09:57:56.073Z,20.19
2022-11-05T10:00:23.100Z,20.59
2022-11-05T10:03:13.455Z,21.04
2022-11-05T10:05:41.289Z,21.47
2022-11-05T10:08:17.248Z,21.23
2022-11-05T10:10:49.944Z,21.31
2022-11-05T10:13:29.809Z,21.48
2022-11-05T10:16:04.521Z,20.93
2022-11-05T10:18:39.604Z,21.60
2022-11-05T10:21:07.379Z,21.74
2022-11-05T10:23:34.697Z,21.95
2022-11-05T10:26:10.601Z,21.68
2022-11-05T10:28:37.780Z,21.64
2022-11-05T10:31:08.579Z,21.82
2022-11-05T10:33:51.688Z,22.02
2022-11-05T10:36:32.170Z,21.69
2022-11-05T10:39:06.230Z,21.68
2022-11-05T10:41:44.029Z,21.45
2022-11-05T10:44:33.345Z,22.33
2022-11-05T10:47:16.678Z,22.74
2022-11-05T10:50:11.466Z,22.89
2022-11-05T10:52:40.196Z,22.51
2022-11-05T10:55:32.955Z,22.24
2022-11-05T10:58:08.888Z,22.10
2022-11-05T11:00:36.612Z,22.19
2022-11-05T11:03:05.918Z,22.48
2022-11-05T11:05:35.571Z,22.41
2022-11-05T11:08:10.969Z,22.33
2022-11-05T11:10:42.398Z,22.53
2022-11-05T11:13:48.333Z,22.05
2022-11-05T11:16:19.959Z,21.91
2022-11-05T11:18:46.793Z,22.10
2022-11-05T11:21:26.303Z,22.05
2022-11-05T11:24:03.033Z,22.30
2022-11-05T11:26:38.885Z,22.56
2022-11-05T11:29:25.892Z,22.55
2022-11-05T11:31:58.165Z,22.59
2022-11-05T11:34:30.984Z,22.56
2022-11-05T11:37:26.524Z,22.40
2022-11-05T11:40:02.124Z,22.38
2022-11-05T11:42:40.012Z,22.08
2022-11-05T11:45:30.108Z,22.53
2022-11-05T11:48:00.436Z,22.30
2022-11-05T11:50:48.223Z,22.79
2022-11-05T11:53:26.105Z,22.84
2022-11-05T11:55:56.012Z,23.13
2022-11-05T11:58:25.711Z,22.90
2022-11-05T12:01:07.108Z,22.74
2022-11-05T12:03:51.570Z,22.86
2022-11-05T12:06:18.318Z,22.80
2022-11-05T12:09:06.686Z,22.90
2022-11-05T12:11:42.097Z,23.17
2022-11-05T12:14:17.747Z,23.02
2022-11-05T12:17:14.546Z,23.20
2022-11-05T12:19:59.240Z,23.36
2022-11-05T12:22:33.139Z,23.43
2022-11-05T12:25:09.317Z,23.66
2022-11-05T12:28:17.919Z,23.96
2022-11-05T12:31:16.383Z,23.70
2022-11-05T12:34:07.836Z,23.86
2022-11-05T12:36:43.701Z,23.88
2022-11-05T12:39:34.466Z,23.86
2022-11-05T12:42:32.112Z,23.75
2022-11-05T12:45:12.681Z,23.78
2022-11-05T12:48:14.739Z,24.07
2022-11-05T12:50:55.512Z,24.14
2022-11-05T12:54:17.830Z,24.25
2022-11-05T12:56:49.334Z,24.16
2022-11-05T12:59:16.128Z,24.28
2022-11-05T13:02:27.892Z,24.10
2022-11-05T13:05:14.057Z,23.96
2022-11-05T13:07:56.795Z,23.80
2022-11-05T13:10:43.643Z,23.66
2022-11-05T13:13:25.431Z,23.33
2022-11-05T13:15:57.489Z,23.13
2022-11-05T13:18:47.463Z,23.23
2022-11-05T13:21:15.904Z,23.14
2022-11-05T13:23:55.463Z,22.87
2022-11-05T13:26:45.211Z,22.74
2022-11-05T13:29:18.143Z,22.41
2022-11-05T13:32:01.514Z,22.25
2022-11-05T13:34:32.211Z,22.15
2022-11-05T13:37:24.066Z,22.10
2022-11-05T13:39:55.692Z,21.97
2022-11-05T13:43:00.316Z,21.86
2022-11-05T13:45:48.167Z,22.15
2022-11-05T13:48:42.647Z,22.34
2022-11-05T13:51:41.414Z,22.59
2022-11-05T13:54:17.669Z,22.79
2022-11-05T13:57:12.353Z,22.67
2022-11-05T13:59:45.701Z,22.52
2022-11-05T14:02:12.508Z,22.32
2022-11-05T14:04:45.417Z,22.33
2022-11-05T14:07:21.851Z,22.38
2022-11-05T14:10:01.467Z,22.06
2022-11-05T14:12:31.886Z,21.90
2022-11-05T14:15:23.812Z,21.63
2022-11-05T14:18:03.245Z,21.39
2022-11-05T14:20:33.019Z,21.34
2022-11-05T14:23:24.542Z,21.09
2022-11-05T14:25:51.385Z,20.99
2022-11-05T14:28:40.096Z,20.84
2022-11-05T14:31:19.118Z,20.61
2022-11-05T14:34:10.673Z,20.37
2022-11-05T14:37:23.716Z,20.30
2022-11-05T14:39:51.247Z,20.08
2022-11-05T14:42:24.968Z,19.95
2022-11-05T14:45:23.719Z,19.61
2022-11-05T14:47:57.749Z,19.44
2022-11-05T14:50:41.930Z,19.43
2022-11-05T14:53:24.256Z,19.44
2022-11-05T14:56:01.022Z,19.31
2022-11-05T14:58:30.985Z,19.21
2022-11-05T15:00:59.109Z,19.14
2022-11-05T15:03:32.012Z,19.14
2022-11-05T15:06:28.917Z,18.91
2022-11-05T15:09:04.376Z,18.81
2022-11-05T15:12:03.532Z,18.90
2022-11-05T15:14:59.477Z,18.79
2022-11-05T15:17:30.755Z,18.65
2022-11-05T15:20:09.453Z,18.56
2022-11-05T15:22:41.579Z,18.58
2022-11-05T15:25:27.106Z,18.56
2022-11-05T15:28:24.901Z,18.53
2022-11-05T15:31:02.834Z,18.33
2022-11-05T15:33:30.501Z,18.33
2022-11-05T15:36:19.938Z,18.33
2022-11-05T15:39:08.226Z,18.29
2022-11-05T15:41:34.687Z,18.33
2022-11-05T15:44:02.819Z,18.17
2022-11-05T15:46:30.034Z,17.68
2022-11-05T15:48:59.780Z,17.71
2022-11-05T15:51:26.972Z,17.72
2022-11-05T15:54:23.788Z,17.49
2022-11-05T15:56:51.268Z,17.53
2022-11-05T15:59:23.779Z,17.37
2022-11-05T16:01:54.446Z,17.49
2022-11-05T16:04:29.988Z,17.49
2022-11-05T16:07:00.904Z,17.50
2022-11-05T16:09:30.097Z,17.02
2022-11-05T16:12:18.742Z,17.01
2022-11-05T16:15:11.574Z,17.08
2022-11-05T16:17:50.257Z,17.16
2022-11-05T16:20:21.702Z,17.09
2022-11-05T16:22:51.031Z,17.08
2022-11-05T16:25:40.402Z,16.96
2022-11-05T16:28:28.477Z,17.09
2022-11-05T16:30:56.823Z,17.13
2022-11-05T16:33:26.125Z,16.79
2022-11-05T16:35:53.350Z,16.79
2022-11-05T16:38:20.611Z,16.69
2022-11-05T16:40:47.634Z,16.76
2022-11-05T16:43:22.312Z,16.65
2022-11-05T16:45:49.728Z,16.77
2022-11-05T16:48:16.960Z,16.65
2022-11-05T16:50:44.289Z,16.59
2022-11-05T16:53:12.248Z,16.62
2022-11-05T16:55:41.520Z,16.51
2022-11-05T16:58:20.922Z,16.53
2022-11-05T17:00:49.679Z,16.52
2022-11-05T17:03:16.609Z,16.50
2022-11-05T17:05:43.430Z,16.34
2022-11-05T17:08:10.668Z,16.30
2022-11-05T17:10:38.020Z,16.37
2022-11-05T17:13:04.830Z,16.24
2022-11-05T17:15:36.300Z,16.14
2022-11-05T17:18:04.985Z,16.10
2022-11-05T17:20:46.483Z,16.05
2022-11-05T17:23:16.383Z,15.93
2022-11-05T17:25:45.941Z,15.97
2022-11-05T17:28:14.036Z,15.99
2022-11-05T17:30:42.094Z,15.68
2022-11-05T17:33:11.308Z,15.69
2022-11-05T17:35:39.884Z,15.66
2022-11-05T17:38:06.714Z,15.55
2022-11-05T17:40:35.093Z,15.38
2022-11-05T17:43:02.424Z,15.57
2022-11-05T17:45:29.229Z,15.56
2022-11-05T17:47:56.141Z,15.63
2022-11-05T17:50:23.072Z,15.61
2022-11-05T17:52:49.867Z,15.58
2022-11-05T17:55:17.463Z,15.54
2022-11-05T17:57:49.311Z,15.60
2022-11-05T18:00:19.314Z,15.60
2022-11-05T18:02:48.537Z,15.36
2022-11-05T18:05:20.057Z,15.43
2022-11-05T18:07:47.315Z,15.36
2022-11-05T18:10:14.945Z,15.31
2022-11-05T18:12:42.589Z,14.90
2022-11-05T18:15:10.048Z,14.93
2022-11-05T18:17:37.168Z,14.81
2022-11-05T18:20:09.900Z,14.98
2022-11-05T18:22:40.256Z,14.91
2022-11-05T18:25:08.329Z,14.81
2022-11-05T18:27:35.687Z,14.87
2022-11-05T18:30:02.692Z,14.85
2022-11-05T18:32:29.551Z,14.91
2022-11-05T18:34:56.362Z,14.75
2022-11-05T18:37:23.354Z,14.63
2022-11-05T18:39:52.039Z,14.69
2022-11-05T18:42:20.426Z,14.71
2022-11-05T18:44:48.150Z,14.71
2022-11-05T18:47:15.445Z,14.79
2022-11-05T18:49:42.334Z,14.62
2022-11-05T18:52:09.227Z,14.73
2022-11-05T18:54:36.248Z,14.76
2022-11-05T18:57:03.181Z,14.54
2022-11-05T18:59:39.451Z,14.39
2022-11-05T19:02:08.681Z,14.38
2022-11-05T19:04:36.498Z,14.42
2022-11-05T19:07:05.489Z,14.24
2022-11-05T19:09:37.112Z,14.31
2022-11-05T19:12:05.000Z,14.45
2022-11-05T19:14:32.414Z,14.38
2022-11-05T19:17:00.303Z,14.25
2022-11-05T19:19:27.700Z,14.27
2022-11-05T19:21:54.752Z,14.11
2022-11-05T19:24:21.626Z,14.18
2022-11-05T19:26:48.645Z,14.07
2022-11-05T19:29:15.460Z,14.09
2022-11-05T19:31:42.362Z,13.66
2022-11-05T19:34:09.204Z,13.68
2022-11-05T19:36:36.168Z,13.67
2022-11-05T19:39:06.549Z,13.81
2022-11-05T19:41:33.689Z,14.04
2022-11-05T19:44:03.744Z,14.03
2022-11-05T19:46:31.617Z,13.94
2022-11-05T19:49:00.554Z,13.74
2022-11-05T19:51:30.038Z,13.52
2022-11-05T19:53:59.882Z,13.56
2022-11-05T19:56:30.026Z,13.59
2022-11-05T19:58:57.540Z,13.68
2022-11-05T20:01:26.866Z,13.53
2022-11-05T20:03:55.411Z,13.57
2022-11-05T20:06:26.482Z,13.56
2022-11-05T20:09:20.039Z,13.73
2022-11-05T20:11:40.629Z,13.78
2022-11-05T20:14:09.644Z,13.76
2022-11-05T20:16:40.447Z,13.82
2022-11-05T20:19:10.608Z,13.81
2022-11-05T20:21:37.794Z,13.84
2022-11-05T20:24:05.085Z,13.71
2022-11-05T20:26:31.990Z,13.67
2022-11-05T20:28:58.820Z,13.59
2022-11-05T20:31:25.816Z,13.69
2022-11-05T20:33:53.422Z,13.69
2022-11-05T20:36:23.351Z,13.60
2022-11-05T20:38:52.636Z,13.70
2022-11-05T20:41:19.781Z,13.81
2022-11-05T20:43:48.068Z,13.86
2022-11-05T20:46:17.804Z,13.85
2022-11-05T20:48:45.136Z,13.83
2022-11-05T20:51:15.365Z,13.54
2022-11-05T20:53:43.182Z,13.48
2022-11-05T20:56:20.691Z,13.49
2022-11-05T20:58:47.607Z,13.34
2022-11-05T21:01:16.682Z,13.48
2022-11-05T21:03:45.381Z,13.38
2022-11-05T21:06:13.013Z,13.23
2022-11-05T21:08:40.195Z,13.30
2022-11-05T21:11:07.431Z,13.24
2022-11-05T21:13:34.578Z,13.20
2022-11-05T21:16:01.981Z,13.10
2022-11-05T21:18:32.283Z,13.13
2022-11-05T21:21:01.856Z,13.08
2022-11-05T21:23:28.986Z,13.06
2022-11-05T21:25:56.084Z,12.98
2022-11-05T21:28:23.380Z,12.95
2022-11-05T21:30:50.200Z,12.81
2022-11-05T21:33:18.625Z,12.96
2022-11-05T21:35:48.201Z,13.00
2022-11-05T21:38:17.229Z,12.72
2022-11-05T21:40:44.882Z,12.80
2022-11-05T21:43:12.237Z,12.90
2022-11-05T21:45:40.092Z,12.70
2022-11-05T21:48:08.168Z,12.59
2022-11-05T21:50:54.557Z,12.58
2022-11-05T21:53:40.035Z,12.68
2022-11-05T21:56:27.081Z,12.61
2022-11-05T21:59:12.509Z,12.60
2022-11-05T22:01:39.506Z,12.35
2022-11-05T22:04:06.460Z,12.44
2022-11-05T22:06:33.860Z,12.51
2022-11-05T22:09:00.650Z,12.36
2022-11-05T22:11:27.528Z,12.33
2022-11-05T22:13:54.317Z,12.50
2022-11-05T22:16:21.126Z,12.48
2022-11-05T22:18:47.932Z,12.67
2022-11-05T22:21:18.646Z,12.73
2022-11-05T22:23:45.593Z,12.76
2022-11-05T22:26:12.424Z,12.70
2022-11-05T22:28:39.272Z,12.94
2022-11-05T22:31:15.725Z,12.83
2022-11-05T22:33:43.436Z,12.89
2022-11-05T22:36:11.375Z,12.80
2022-11-05T22:38:38.673Z,12.70
2022-11-05T22:41:14.041Z,12.65
2022-11-05T22:43:41.126Z,12.78
2022-11-05T22:46:16.583Z,12.84
2022-11-05T22:48:44.027Z,12.77
2022-11-05T22:51:13.387Z,12.61
2022-11-05T22:53:41.460Z,12.59
2022-11-05T22:56:13.638Z,12.60
2022-11-05T22:58:40.498Z,12.63
2022-11-05T23:01:08.756Z,12.44
2022-11-05T23:03:36.015Z,12.49
2022-11-05T23:06:27.682Z,12.29
2022-11-05T23:09:13.080Z,12.16
2022-11-05T23:11:44.116Z,12.23
2022-11-05T23:14:13.407Z,12.19
2022-11-05T23:16:59.770Z,12.23
2022-11-05T23:19:45.676Z,12.23
2022-11-05T23:22:33.717Z,12.29
2022-11-05T23:25:00.758Z,11.86
2022-11-05T23:27:32.543Z,11.91
2022-11-05T23:30:01.303Z,11.88
2022-11-05T23:32:31.122Z,12.03
2022-11-05T23:34:59.015Z,11.96
2022-11-05T23:37:46.281Z,11.88
2022-11-05T23:40:22.718Z,11.81
2022-11-05T23:43:08.485Z,11.58
2022-11-05T23:45:47.999Z,11.61
2022-11-05T23:48:23.194Z,11.64
2022-11-05T23:50:55.501Z,11.71
2022-11-05T23:53:22.528Z,11.69
2022-11-05T23:55:49.827Z,11.63
2022-11-05T23:58:17.497Z,11.80
